Time;durP1;ratioP1;P1;durP2;ratioP2;P2;SDS_P1;SDS_P2;PMS_P1;PMS_P2;Temp;Humidity;BMP_temperature;BMP_pressure;BME280_temperature;BME280_humidity;BME280_pressure;Samples;Min_cycle;Max_cycle;Signal;HPM_P1;HPM_P2
2021/12/27 15:43:25;;;;;;;;;10.67;5.33;;;;;13.11;66.90;99229.31;5103136;27;45718;-68
2021/12/27 15:45:51;;;;;;;;;12.00;6.00;;;;;13.26;67.18;99225.84;5087064;27;44920;-68
2021/12/27 15:48:17;;;;;;;;;10.33;6.33;;;;;13.36;66.31;99225.97;5087121;27;45475;-67
2021/12/27 15:50:44;;;;;;;;;10.67;6.33;;;;;13.42;66.29;99226.84;5085316;27;45348;-67
2021/12/27 15:53:11;;;;;;;;;10.67;6.67;;;;;13.49;65.57;99221.09;5086423;27;45744;-68
2021/12/27 15:55:37;;;;;;;;;11.67;7.00;;;;;13.56;65.49;99236.31;5087273;27;45732;-68
2021/12/27 15:58:03;;;;;;;;;9.67;6.33;;;;;13.62;65.61;99231.63;5087511;27;45482;-69
2021/12/27 16:00:29;;;;;;;;;13.33;7.67;;;;;13.65;65.35;99239.38;5087143;27;45594;-69
2021/12/27 16:02:56;;;;;;;;;11.67;6.67;;;;;13.68;65.67;99235.25;5085412;27;45916;-69
2021/12/27 16:05:22;;;;;;;;;8.33;5.67;;;;;13.73;65.18;99235.31;5089448;27;45790;-68
2021/12/27 16:08:52;;;;;;;;;12.67;7.33;;;;;13.75;65.39;99239.44;5092347;27;45314;-69
2021/12/27 16:11:20;;;;;;;;;15.67;8.00;;;;;13.65;64.81;99227.53;5094872;27;45286;-66
2021/12/27 16:13:48;;;;;;;;;10.00;7.33;;;;;13.77;64.12;99250.19;5092653;27;46373;-65
2021/12/27 16:16:24;;;;;;;;;16.33;9.67;;;;;13.84;64.33;99263.72;5079116;27;45664;-66
2021/12/27 16:19:40;;;;;;;;;11.00;9.33;;;;;13.80;64.20;99268.94;5070048;28;45728;-65
2021/12/27 16:22:29;;;;;;;;;;;;;;;;;;;;;
2021/12/27 16:24:58;;;;;;;;;9.67;7.00;;;;;13.88;64.02;99282.22;5078502;27;74350;-66
2021/12/27 16:27:24;;;;;;;;;14.00;7.33;;;;;13.91;63.40;99281.69;5083284;27;45476;-69
2021/12/27 16:29:49;;;;;;;;;7.00;5.67;;;;;13.93;63.63;99273.97;5068895;27;45674;-69
2021/12/27 16:32:18;;;;;;;;;9.33;6.33;;;;;13.96;63.31;99269.84;5072477;27;45769;-69
2021/12/27 16:34:44;;;;;;;;;8.00;4.33;;;;;13.98;63.46;99258.56;5076337;27;46109;-65
2021/12/27 16:37:19;;;;;;;;;8.33;5.00;;;;;13.91;63.56;99259.63;5093548;27;45459;-68
2021/12/27 16:39:45;;;;;;;;;8.00;7.00;;;;;13.90;63.42;99271.75;5088293;27;45782;-64
2021/12/27 16:42:12;;;;;;;;;6.67;5.33;;;;;13.91;63.52;99276.16;5101591;27;45468;-69
2021/12/27 16:44:38;;;;;;;;;10.00;5.67;;;;;13.91;63.00;99275.34;5110727;27;47315;-69
2021/12/27 16:47:05;;;;;;;;;7.67;4.67;;;;;13.90;63.18;99269.00;5110939;27;45313;-69
2021/12/27 16:49:31;;;;;;;;;12.33;4.67;;;;;13.93;63.33;99284.16;5109157;27;45396;-68
2021/12/27 16:51:58;;;;;;;;;12.33;5.67;;;;;13.89;63.70;99274.78;5094524;27;45556;-67
2021/12/27 16:54:30;;;;;;;;;12.67;7.00;;;;;13.86;63.70;99269.78;5100399;27;46976;-70
2021/12/27 16:56:56;;;;;;;;;8.33;6.00;;;;;13.83;64.53;99268.44;5095392;27;45839;-70
2021/12/27 16:59:21;;;;;;;;;10.33;7.33;;;;;13.83;64.57;99259.31;5097654;27;45792;-70
2021/12/27 17:02:05;;;;;;;;;9.67;6.33;;;;;13.77;64.22;99259.28;5095998;27;45819;-66
2021/12/27 17:04:37;;;;;;;;;13.33;8.67;;;;;13.74;65.05;99261.72;5098408;27;45370;-67
2021/12/27 17:07:14;;;;;;;;;14.00;8.33;;;;;13.70;64.30;99258.69;5096941;27;45338;-72
2021/12/27 17:09:46;;;;;;;;;10.00;8.00;;;;;13.70;65.15;99264.22;5077982;27;45721;-71
2021/12/27 17:12:12;;;;;;;;;14.00;5.67;;;;;13.68;64.98;99263.66;5086219;27;45838;-68
2021/12/27 17:15:00;;;;;;;;;12.67;6.33;;;;;13.64;65.06;99258.91;5095562;27;46914;-68
2021/12/27 17:17:25;;;;;;;;;8.67;4.33;;;;;13.60;65.38;99250.38;5072864;27;45662;-73
2021/12/27 17:19:51;;;;;;;;;7.00;5.67;;;;;13.59;65.50;99252.31;5097241;27;45391;-70
2021/12/27 17:22:17;;;;;;;;;15.33;8.67;;;;;13.60;65.66;99247.59;5092397;27;45745;-69
2021/12/27 17:24:42;;;;;;;;;8.33;7.33;;;;;13.58;65.02;99250.63;5085103;27;45444;-71
2021/12/27 17:27:10;;;;;;;;;14.00;9.00;;;;;13.52;66.03;99251.69;5087294;27;45512;-69
2021/12/27 17:29:36;;;;;;;;;8.00;7.33;;;;;13.49;65.57;99246.72;5076744;28;45742;-67
2021/12/27 17:32:08;;;;;;;;;6.33;5.33;;;;;13.47;66.54;99257.16;5076675;27;45437;-70
2021/12/27 17:34:37;;;;;;;;;7.33;6.33;;;;;13.42;66.06;99246.94;5089429;27;45523;-73
2021/12/27 17:37:09;;;;;;;;;12.67;6.67;;;;;13.46;65.64;99255.50;5091724;27;45611;-69
2021/12/27 17:39:36;;;;;;;;;11.00;8.33;;;;;13.45;66.46;99256.59;5095143;27;45449;-72
2021/12/27 17:42:05;;;;;;;;;7.00;6.00;;;;;13.37;66.48;99246.09;5078605;27;45329;-75
2021/12/27 17:44:34;;;;;;;;;11.33;6.00;;;;;13.36;66.25;99241.66;5086580;27;46267;-70
2021/12/27 17:47:01;;;;;;;;;10.67;8.00;;;;;13.36;66.37;99241.66;5095098;27;45875;-70
2021/12/27 17:49:28;;;;;;;;;9.67;6.00;;;;;13.36;66.39;99247.19;5071387;27;45843;-72
2021/12/27 17:51:57;;;;;;;;;13.33;8.33;;;;;13.33;66.71;99262.25;5095004;27;45321;-68
2021/12/27 17:54:30;;;;;;;;;11.00;8.00;;;;;13.32;67.05;99263.34;5084148;27;47372;-72
2021/12/27 17:56:58;;;;;;;;;10.00;8.67;;;;;13.33;66.95;99262.25;5087607;27;45700;-72
2021/12/27 17:59:24;;;;;;;;;10.00;4.33;;;;;13.33;66.39;99258.69;5086007;27;45647;-74
2021/12/27 18:01:52;;;;;;;;;11.33;6.67;;;;;13.34;66.54;99265.91;5070798;27;46652;-71
2021/12/27 18:04:20;;;;;;;;;10.67;8.33;;;;;13.34;66.33;99257.63;5086430;27;46223;-72
2021/12/27 18:06:50;;;;;;;;;11.67;8.67;;;;;13.31;66.52;99258.09;5090048;27;45798;-67
2021/12/27 18:09:19;;;;;;;;;8.67;6.00;;;;;13.32;66.63;99262.53;5063930;27;45857;-68
2021/12/27 18:11:46;;;;;;;;;10.67;6.33;;;;;13.32;66.85;99268.03;5086592;27;45630;-70
2021/12/27 18:14:19;;;;;;;;;17.67;9.33;;;;;13.31;66.04;99267.22;5072340;27;45813;-70
2021/12/27 18:16:45;;;;;;;;;12.67;6.67;;;;;13.32;66.54;99270.78;5087813;27;46005;-72
2021/12/27 18:19:10;;;;;;;;;8.33;6.33;;;;;13.33;66.70;99256.75;5091761;27;45819;-72
2021/12/27 18:21:37;;;;;;;;;9.67;8.67;;;;;13.29;66.96;99241.03;5089576;27;45995;-71
2021/12/27 18:24:08;;;;;;;;;10.67;7.00;;;;;13.31;66.55;99247.94;5086178;27;45950;-70
2021/12/27 18:26:35;;;;;;;;;11.33;6.67;;;;;13.32;66.97;99240.50;5089131;27;45854;-69
2021/12/27 18:29:02;;;;;;;;;14.33;7.67;;;;;13.34;66.54;99233.69;5089182;27;45593;-69
2021/12/27 18:31:29;;;;;;;;;12.33;8.00;;;;;13.35;67.05;99231.75;5088509;27;45521;-70
2021/12/27 18:33:55;;;;;;;;;8.67;4.67;;;;;13.32;66.91;99219.28;5071279;27;48580;-66
2021/12/27 18:36:23;;;;;;;;;8.67;8.00;;;;;13.29;66.50;99217.06;5091927;27;46183;-67
2021/12/27 18:38:55;;;;;;;;;12.67;7.33;;;;;13.32;66.38;99221.22;5074150;27;45559;-68
2021/12/27 18:41:20;;;;;;;;;11.33;9.00;;;;;13.30;66.59;99218.75;5092016;27;46597;-68
2021/12/27 18:43:49;;;;;;;;;17.33;10.00;;;;;13.27;66.72;99222.03;5092379;27;45444;-67
2021/12/27 18:46:15;;;;;;;;;12.00;7.33;;;;;13.26;66.35;99212.09;5073827;27;46797;-67
2021/12/27 18:48:40;;;;;;;;;13.00;5.67;;;;;13.32;66.65;99201.94;5091445;27;45846;-68
2021/12/27 18:51:09;;;;;;;;;6.33;6.33;;;;;13.32;67.09;99197.25;5087422;27;45738;-69
2021/12/27 18:53:34;;;;;;;;;11.33;6.33;;;;;13.31;67.22;99195.63;5086342;27;46409;-70
2021/12/27 18:56:20;;;;;;;;;16.33;6.00;;;;;13.34;66.88;99206.13;5088424;27;45700;-68
2021/12/27 18:58:49;;;;;;;;;14.00;8.00;;;;;13.30;67.17;99180.19;5083797;27;45306;-67
2021/12/27 19:01:16;;;;;;;;;10.00;8.00;;;;;13.31;67.54;99189.28;5090125;27;45889;-66
2021/12/27 19:03:42;;;;;;;;;32.33;26.33;;;;;13.32;67.44;99189.00;5092713;27;47386;-70
2021/12/27 19:06:08;;;;;;;;;10.00;7.33;;;;;13.32;67.62;99193.69;5093384;27;45473;-69
2021/12/27 19:08:34;;;;;;;;;10.00;6.67;;;;;13.32;67.43;99191.75;5093963;27;45545;-68
2021/12/27 19:11:00;;;;;;;;;13.33;8.67;;;;;13.32;66.84;99186.25;5096574;27;45847;-69
2021/12/27 19:13:27;;;;;;;;;8.33;6.00;;;;;13.32;67.63;99188.19;5095566;27;47512;-69
2021/12/27 19:15:53;;;;;;;;;14.67;6.67;;;;;13.37;67.73;99182.75;5083031;27;45502;-68
2021/12/27 19:18:18;;;;;;;;;12.33;9.00;;;;;13.38;66.84;99177.00;5091879;27;45619;-68
2021/12/27 19:20:44;;;;;;;;;16.00;12.00;;;;;13.38;67.05;99178.88;5095860;27;45682;-71
2021/12/27 19:23:10;;;;;;;;;13.33;7.67;;;;;13.41;66.57;99167.34;5095851;27;45642;-68
2021/12/27 19:25:35;;;;;;;;;14.33;9.33;;;;;13.39;67.24;99164.03;5093928;27;45618;-68
2021/12/27 19:28:07;;;;;;;;;9.67;4.33;;;;;13.37;66.33;99166.25;5092083;27;45901;-68
2021/12/27 19:30:46;;;;;;;;;13.00;7.67;;;;;13.36;67.73;99159.06;5087644;27;45998;-70
2021/12/27 19:33:12;;;;;;;;;12.33;8.67;;;;;13.39;66.95;99172.28;5094166;27;46258;-69
2021/12/27 19:35:40;;;;;;;;;10.00;7.00;;;;;13.40;66.78;99150.00;5075312;27;45445;-69
2021/12/27 19:38:09;;;;;;;;;8.67;7.33;;;;;13.39;66.69;99148.34;5093172;27;45291;-70
2021/12/27 19:40:37;;;;;;;;;10.33;6.33;;;;;13.40;66.48;99130.72;5093470;27;46008;-70
2021/12/27 19:43:20;;;;;;;;;;;;;;;;;;;;;
2021/12/27 19:45:54;;;;;;;;;7.67;4.00;;;;;13.38;66.97;99145.84;5083270;27;72822;-69
2021/12/27 19:48:20;;;;;;;;;8.67;7.00;;;;;13.40;67.10;99140.91;5073969;27;45741;-71
2021/12/27 19:50:46;;;;;;;;;7.67;5.00;;;;;13.38;66.90;99126.56;5069598;28;46079;-73
2021/12/27 19:53:13;;;;;;;;;10.00;6.33;;;;;13.32;66.17;99119.34;5070368;27;45816;-68
2021/12/27 19:55:39;;;;;;;;;13.33;9.00;;;;;13.35;66.65;99138.13;5071546;28;45885;-71
2021/12/27 19:58:05;;;;;;;;;12.00;4.33;;;;;13.32;67.58;99141.38;5073816;27;44906;-70
2021/12/27 20:00:35;;;;;;;;;13.33;8.33;;;;;13.34;67.04;99134.56;5059190;28;45387;-70
2021/12/27 20:03:01;;;;;;;;;11.00;7.67;;;;;13.35;66.93;99129.88;5068494;28;45813;-70
2021/12/27 20:05:28;;;;;;;;;10.00;7.33;;;;;13.40;67.14;99132.66;5065975;28;45684;-71
2021/12/27 20:07:54;;;;;;;;;9.67;6.00;;;;;13.45;67.33;99142.88;5053297;28;46000;-69
2021/12/27 20:10:22;;;;;;;;;12.33;5.00;;;;;13.47;67.13;99138.72;5053997;28;46159;-69
2021/12/27 20:12:54;;;;;;;;;9.33;7.33;;;;;13.49;67.20;99130.19;5052252;28;46132;-70
2021/12/27 20:15:20;;;;;;;;;11.67;5.00;;;;;13.50;66.76;99140.97;5070362;27;45681;-69
2021/12/27 20:17:49;;;;;;;;;9.67;6.33;;;;;13.53;67.32;99129.41;5073243;27;45452;-69
2021/12/27 20:20:14;;;;;;;;;10.33;7.33;;;;;13.54;66.37;99116.47;5054145;28;45858;-69
2021/12/27 20:22:40;;;;;;;;;8.33;7.33;;;;;13.56;67.13;99109.59;5070454;28;45766;-69
2021/12/27 20:25:06;;;;;;;;;8.00;4.00;;;;;13.60;66.40;99110.69;5066784;28;45728;-69
2021/12/27 20:27:32;;;;;;;;;7.67;5.67;;;;;13.62;66.46;99093.09;5070989;28;45583;-69
2021/12/27 20:30:35;;;;;;;;;10.33;7.00;;;;;13.66;66.47;99097.78;5075097;28;45479;-68
2021/12/27 20:33:04;;;;;;;;;7.33;4.67;;;;;13.67;66.19;99098.63;5057718;28;46758;-73
2021/12/27 20:35:31;;;;;;;;;10.00;6.00;;;;;13.67;66.18;99098.63;5076278;28;45456;-69
2021/12/27 20:38:01;;;;;;;;;7.67;5.33;;;;;13.67;65.77;99104.13;5075120;28;44822;-67
2021/12/27 20:40:31;;;;;;;;;7.67;6.33;;;;;13.67;66.04;99095.88;5076436;28;45606;-69
2021/12/27 20:43:05;;;;;;;;;9.67;6.33;;;;;13.65;66.53;99096.13;5040399;28;45597;-68
2021/12/27 20:45:34;;;;;;;;;8.00;5.67;;;;;13.64;66.54;99099.13;5038012;28;45680;-69
2021/12/27 20:48:00;;;;;;;;;8.67;4.67;;;;;13.67;67.01;99093.94;5036663;28;45691;-68
2021/12/27 20:50:30;;;;;;;;;9.67;4.33;;;;;13.69;66.62;99100.00;5037196;28;45963;-70
2021/12/27 20:53:05;;;;;;;;;8.33;6.00;;;;;13.70;66.56;99096.16;5048728;28;46753;-70
2021/12/27 20:55:31;;;;;;;;;6.33;4.00;;;;;13.73;66.02;99100.28;5053658;28;45659;-70
2021/12/27 20:57:57;;;;;;;;;10.33;5.67;;;;;13.72;66.54;99074.66;5054475;27;45442;-70
2021/12/27 21:00:30;;;;;;;;;10.67;7.00;;;;;13.77;66.08;99077.44;5050962;28;45849;-70
2021/12/27 21:02:56;;;;;;;;;5.67;4.67;;;;;13.82;66.73;99075.78;5067113;28;47177;-69
2021/12/27 21:05:26;;;;;;;;;3.33;2.67;;;;;13.85;66.23;99067.00;5051130;28;45711;-70
2021/12/27 21:07:59;;;;;;;;;9.00;5.33;;;;;13.85;66.18;99056.78;5046984;28;45517;-70
2021/12/27 21:10:25;;;;;;;;;10.33;7.67;;;;;13.85;66.41;99048.53;5048764;28;45564;-70
2021/12/27 21:12:50;;;;;;;;;4.33;3.67;;;;;13.87;65.97;99040.81;5051732;28;45930;-70
2021/12/27 21:15:19;;;;;;;;;9.00;7.67;;;;;13.90;67.02;99031.16;5052104;28;45410;-70
2021/12/27 21:17:45;;;;;;;;;6.00;4.33;;;;;13.92;66.51;99040.81;5052227;28;45790;-70
2021/12/27 21:20:13;;;;;;;;;8.33;5.67;;;;;13.93;65.83;99031.44;5049136;28;45869;-67
2021/12/27 21:22:39;;;;;;;;;6.67;3.67;;;;;13.94;65.92;99016.56;5052791;28;46452;-69
2021/12/27 21:25:06;;;;;;;;;8.67;5.33;;;;;13.96;65.82;99013.53;5051620;28;45478;-68
2021/12/27 21:27:31;;;;;;;;;6.33;4.00;;;;;13.98;66.67;99011.31;5051439;28;45541;-69
2021/12/27 21:30:00;;;;;;;;;8.33;5.00;;;;;13.96;65.75;99013.53;5050584;28;45389;-70
2021/12/27 21:32:29;;;;;;;;;5.33;4.33;;;;;13.97;66.09;99001.41;5046100;28;47115;-70
2021/12/27 21:34:58;;;;;;;;;7.67;5.67;;;;;13.98;66.29;98999.47;5052917;28;45393;-70
2021/12/27 21:37:26;;;;;;;;;5.67;3.33;;;;;13.95;66.87;98990.66;5044161;28;45842;-68
2021/12/27 21:39:56;;;;;;;;;2.67;2.33;;;;;13.95;66.69;98984.31;5051055;28;45691;-68
2021/12/27 21:42:22;;;;;;;;;8.00;3.67;;;;;13.92;66.70;98977.44;5048398;28;45921;-69
2021/12/27 21:44:50;;;;;;;;;5.33;3.33;;;;;13.86;67.04;98969.44;5062306;28;45925;-68
2021/12/27 21:47:16;;;;;;;;;3.00;2.67;;;;;13.83;67.88;98964.47;5049124;28;45518;-69
2021/12/27 21:49:47;;;;;;;;;12.33;3.00;;;;;13.79;67.62;98953.19;5046760;28;45358;-68
2021/12/27 21:52:15;;;;;;;;;3.33;2.33;;;;;13.75;67.30;98944.63;5054977;28;45912;-67
2021/12/27 21:54:44;;;;;;;;;3.67;3.67;;;;;13.67;68.30;98939.66;5053793;28;45832;-68
2021/12/27 21:57:11;;;;;;;;;9.00;2.33;;;;;13.59;66.98;98940.19;5054538;28;45412;-69
2021/12/27 21:59:37;;;;;;;;;2.00;1.33;;;;;13.54;67.45;98953.97;5052923;28;45433;-68
2021/12/27 22:02:03;;;;;;;;;5.67;2.33;;;;;13.43;67.38;98955.88;5053608;28;45985;-68
2021/12/27 22:04:29;;;;;;;;;0.67;0.67;;;;;13.37;68.02;98948.72;5052661;28;45724;-68
2021/12/27 22:06:54;;;;;;;;;2.67;1.33;;;;;13.34;67.12;98961.09;5052641;28;45911;-67
2021/12/27 22:09:20;;;;;;;;;4.00;1.00;;;;;13.32;67.52;98965.16;5053499;28;45505;-67
2021/12/27 22:11:45;;;;;;;;;5.67;2.00;;;;;13.29;67.46;98955.53;5050481;28;46671;-65
2021/12/27 22:14:13;;;;;;;;;3.33;2.00;;;;;13.27;68.17;98960.47;5055076;28;45715;-67
2021/12/27 22:16:39;;;;;;;;;0.67;0.67;;;;;13.31;68.61;98960.75;5054143;28;45382;-67
2021/12/27 22:19:08;;;;;;;;;2.33;1.67;;;;;13.32;68.06;98960.47;5056408;28;45423;-70
2021/12/27 22:21:33;;;;;;;;;6.00;4.33;;;;;13.30;68.31;98961.88;5056823;28;45665;-68
2021/12/27 22:23:59;;;;;;;;;1.67;0.67;;;;;13.28;68.04;98962.16;5072214;28;45813;-71
2021/12/27 22:26:31;;;;;;;;;3.67;1.00;;;;;13.30;67.53;98942.59;5055754;28;45506;-69
2021/12/27 22:29:00;;;;;;;;;3.67;0.67;;;;;13.11;68.76;98912.81;5160490;22;45688;-78
2021/12/27 22:31:26;;;;;;;;;1.67;1.00;;;;;13.34;67.77;98946.50;5019976;28;46385;-75
2021/12/27 22:33:55;;;;;;;;;4.33;0.00;;;;;13.35;68.69;98937.97;5019992;28;45447;-78
2021/12/27 22:36:24;;;;;;;;;0.67;0.67;;;;;13.35;69.54;98951.75;5024903;28;45458;-79
2021/12/27 22:38:49;;;;;;;;;3.67;0.33;;;;;13.34;70.30;98963.03;5018197;28;45423;-74
2021/12/27 22:41:15;;;;;;;;;0.67;0.67;;;;;13.28;70.06;98973.16;4998663;28;46896;-75
2021/12/27 22:43:40;;;;;;;;;0.33;0.00;;;;;13.21;70.75;98978.09;5002010;28;45488;-75
2021/12/27 22:46:09;;;;;;;;;0.00;0.00;;;;;13.17;70.34;98983.31;5013030;28;45647;-78
2021/12/27 22:48:34;;;;;;;;;0.33;0.00;;;;;13.17;70.56;98975.06;5027663;28;45387;-76
2021/12/27 22:51:04;;;;;;;;;2.00;1.33;;;;;13.18;71.25;98971.19;5030270;28;47174;-75
2021/12/27 22:53:30;;;;;;;;;0.00;0.00;;;;;13.16;70.82;98972.53;5002793;28;45429;-74
2021/12/27 22:55:58;;;;;;;;;0.00;0.00;;;;;13.20;70.54;98960.75;5024964;28;45367;-80
2021/12/27 22:58:24;;;;;;;;;1.33;0.00;;;;;13.20;70.53;98958.00;5028232;28;45420;-78
2021/12/27 23:00:50;;;;;;;;;0.33;0.00;;;;;13.18;70.67;98949.16;5029036;28;45445;-77
2021/12/27 23:03:19;;;;;;;;;2.33;1.00;;;;;13.15;70.91;98938.69;5028533;28;44945;-76
2021/12/27 23:05:45;;;;;;;;;2.33;1.67;;;;;13.11;71.00;98926.56;5030263;28;44898;-78
2021/12/27 23:08:13;;;;;;;;;2.33;0.33;;;;;13.10;71.57;98924.94;5020020;28;45351;-75
2021/12/27 23:10:39;;;;;;;;;1.00;1.00;;;;;13.09;72.74;98912.25;5023544;28;45313;-81
2021/12/27 23:13:05;;;;;;;;;0.00;0.00;;;;;12.97;73.20;98908.94;5036871;28;45331;-80
2021/12/27 23:15:34;;;;;;;;;1.00;1.00;;;;;12.90;74.17;98898.16;5036466;28;44810;-81
2021/12/27 23:18:00;;;;;;;;;1.67;0.00;;;;;12.82;73.59;98883.00;5035772;28;46204;-82
2021/12/27 23:20:32;;;;;;;;;0.33;0.33;;;;;12.75;74.24;98881.59;5029127;28;46748;-76
2021/12/27 23:22:57;;;;;;;;;2.67;1.00;;;;;12.67;74.16;98864.53;5019430;28;45457;-80
2021/12/27 23:25:29;;;;;;;;;0.33;0.33;;;;;12.71;75.00;98871.16;5033525;28;44756;-79
2021/12/27 23:28:12;;;;;;;;;2.00;2.00;;;;;12.73;74.46;98861.81;5051558;28;45792;-81
2021/12/27 23:30:49;;;;;;;;;2.33;2.00;;;;;12.75;74.67;98856.84;5041616;28;45495;-81
2021/12/27 23:33:45;;;;;;;;;3.00;2.67;;;;;12.69;74.38;98847.75;5027172;28;45735;-75
2021/12/27 23:36:11;;;;;;;;;2.00;1.33;;;;;12.67;75.08;98847.19;5029993;28;45273;-81
2021/12/27 23:38:37;;;;;;;;;1.67;1.33;;;;;12.60;74.90;98827.38;5049127;28;45666;-81
2021/12/27 23:41:06;;;;;;;;;2.00;1.00;;;;;12.60;74.45;98819.94;5028573;28;46452;-75
2021/12/27 23:43:36;;;;;;;;;1.00;0.67;;;;;12.70;74.08;98830.16;5019412;28;45815;-76
2021/12/27 23:46:03;;;;;;;;;2.00;0.00;;;;;12.67;74.36;98826.03;5033918;28;44772;-81
2021/12/27 23:48:30;;;;;;;;;0.00;0.00;;;;;12.63;73.75;98819.41;5033820;28;45334;-80
2021/12/27 23:50:59;;;;;;;;;1.00;1.00;;;;;12.59;74.26;98814.72;5034063;28;45120;-81
2021/12/27 23:53:24;;;;;;;;;1.00;0.00;;;;;12.57;74.53;98806.72;5033126;28;45347;-81
2021/12/27 23:55:50;;;;;;;;;0.00;0.00;;;;;12.54;74.36;98801.78;5031997;28;45789;-82
2021/12/27 23:58:31;;;;;;;;;0.67;0.67;;;;;12.52;73.97;98799.28;5032893;28;45530;-81
